KRHI/RHI METAR and TAF weather

Enter ICAO airport designator
Station Type Date Time Source
KRHI METAR 2022/06/28 07:53 UTC NOAA

KRHI 280753Z AUTO 23006KT 10SM CLR 14/11 A3013 RMK AO2 SLP200 T01440106


Station Type Date Time Source
KRHI Decoded METAR 2022/06/28 07:53 UTC NOAA

RHINELANDER-ONEIDA CO AIRPORT , WI, United States (KRHI) 45-38N 89-29W 485M
Jun 28, 2022 - 03:53 AM EDT / 2022.06.28 0753 UTC
Wind: from the SW (230 degrees) at 7 MPH (6 KT):0
Visibility: 10 mile(s):0
Sky conditions: clear
Temperature: 57.9 F (14.4 C)
Dew Point: 51.1 F (10.6 C)
Relative Humidity: 77%
Pressure (altimeter): 30.13 in. Hg (1020 hPa)
ob: KRHI 280753Z AUTO 23006KT 10SM CLR 14/11 A3013 RMK AO2 SLP200 T01440106
cycle: 8

Station Type Date Time Source
KRHI TAF 2022/06/28 06:22 UTC NOAA

TAF KRHI 280520Z 2806/2906 24005KT P6SM SCT250
FM281400 25008G15KT P6SM BKN250
FM281500 24009G18KT 5SM -SHRA BKN070 PROB30 2819/2822 4SM -TSRA BKN030CB
FM282300 33007KT P6SM -SHRA BKN040
FM290200 VRB03KT P6SM SCT050

Example: see airport list